createdAt,value
2022-10-03T00:01:51.207Z,60.49
2022-10-03T00:04:39.704Z,60.43
2022-10-03T00:07:16.757Z,60.34
2022-10-03T00:10:22.297Z,60.96
2022-10-03T00:12:55.169Z,60.97
2022-10-03T00:15:31.070Z,60.24
2022-10-03T00:18:26.618Z,60.76
2022-10-03T00:21:15.346Z,60.32
2022-10-03T00:24:00.783Z,60.80
2022-10-03T00:26:45.833Z,61.14
2022-10-03T00:29:17.737Z,61.00
2022-10-03T00:32:08.045Z,61.02
2022-10-03T00:34:53.049Z,60.57
2022-10-03T00:37:38.084Z,60.25
2022-10-03T00:40:20.215Z,61.13
2022-10-03T00:42:52.839Z,60.69
2022-10-03T00:45:45.344Z,60.84
2022-10-03T00:48:27.290Z,60.57
2022-10-03T00:50:59.829Z,61.00
2022-10-03T00:53:43.435Z,60.31
2022-10-03T00:56:24.547Z,60.02
2022-10-03T00:59:15.999Z,60.76
2022-10-03T01:01:49.277Z,60.17
2022-10-03T01:04:37.358Z,60.56
2022-10-03T01:07:23.287Z,60.51
2022-10-03T01:10:37.842Z,60.19
2022-10-03T01:13:46.991Z,60.40
2022-10-03T01:17:13.250Z,60.28
2022-10-03T01:20:38.229Z,61.05
2022-10-03T01:23:38.082Z,60.47
2022-10-03T01:26:28.037Z,60.43
2022-10-03T01:29:17.729Z,60.68
2022-10-03T01:31:50.597Z,60.57
2022-10-03T01:34:31.197Z,61.14
2022-10-03T01:37:06.418Z,60.37
2022-10-03T01:40:09.210Z,60.80
2022-10-03T01:42:53.715Z,60.74
2022-10-03T01:45:47.809Z,60.27
2022-10-03T01:48:22.778Z,60.26
2022-10-03T01:51:22.088Z,60.28
2022-10-03T01:53:56.644Z,60.44
2022-10-03T01:56:40.961Z,60.81
2022-10-03T01:59:14.711Z,60.75
2022-10-03T02:01:48.596Z,60.91
2022-10-03T02:04:38.103Z,60.61
2022-10-03T02:07:08.588Z,61.00
2022-10-03T02:09:44.479Z,60.34
2022-10-03T02:12:15.069Z,60.89
2022-10-03T02:14:58.672Z,60.28
2022-10-03T02:17:48.433Z,60.72
2022-10-03T02:20:24.157Z,60.81
2022-10-03T02:22:55.590Z,61.10
2022-10-03T02:25:56.130Z,60.15
2022-10-03T02:28:35.530Z,60.69
2022-10-03T02:31:21.233Z,60.12
2022-10-03T02:34:06.660Z,60.69
2022-10-03T02:36:39.346Z,60.66
2022-10-03T02:39:12.017Z,60.33
2022-10-03T02:41:59.797Z,60.40
2022-10-03T02:44:51.515Z,60.33
2022-10-03T02:47:39.651Z,60.56
2022-10-03T02:50:19.417Z,60.28
2022-10-03T02:53:27.734Z,59.88
2022-10-03T02:56:25.629Z,60.56
2022-10-03T02:59:13.593Z,60.70
2022-10-03T03:01:52.303Z,60.16
2022-10-03T03:04:37.638Z,60.66
2022-10-03T03:07:39.637Z,59.91
2022-10-03T03:10:45.417Z,61.01
2022-10-03T03:13:37.371Z,60.62
2022-10-03T03:16:23.687Z,60.00
2022-10-03T03:18:59.777Z,60.69
2022-10-03T03:21:55.731Z,59.93
2022-10-03T03:24:55.602Z,60.12
2022-10-03T03:27:22.564Z,60.74
2022-10-03T03:30:16.073Z,59.91
2022-10-03T03:33:01.619Z,60.66
2022-10-03T03:35:34.149Z,59.97
2022-10-03T03:38:30.507Z,60.92
2022-10-03T03:41:06.842Z,59.99
2022-10-03T03:43:39.319Z,60.52
2022-10-03T03:46:59.980Z,60.98
2022-10-03T03:50:02.441Z,60.60
2022-10-03T03:52:35.403Z,60.98
2022-10-03T03:55:27.327Z,59.64
2022-10-03T03:58:13.990Z,59.84
2022-10-03T04:00:45.815Z,60.55
2022-10-03T04:03:20.288Z,60.42
2022-10-03T04:06:06.130Z,60.58
2022-10-03T04:08:46.058Z,60.51
2022-10-03T04:11:33.638Z,60.53
2022-10-03T04:14:21.963Z,60.58
2022-10-03T04:17:24.283Z,59.93
2022-10-03T04:20:00.370Z,59.93
2022-10-03T04:23:00.701Z,60.10
2022-10-03T04:26:16.094Z,60.01
2022-10-03T04:28:52.119Z,60.58
2022-10-03T04:31:31.262Z,60.21
2022-10-03T04:34:04.230Z,60.46
2022-10-03T04:36:47.352Z,60.82
2022-10-03T04:39:37.933Z,59.84
2022-10-03T04:42:42.457Z,60.33
2022-10-03T04:45:29.195Z,60.55
2022-10-03T04:48:06.876Z,60.08
2022-10-03T04:50:38.688Z,60.20
2022-10-03T04:53:29.759Z,60.46
2022-10-03T04:56:38.743Z,60.83
2022-10-03T04:59:26.297Z,59.85
2022-10-03T05:01:56.184Z,60.27
2022-10-03T05:04:26.830Z,60.58
2022-10-03T05:07:07.502Z,60.47
2022-10-03T05:09:52.123Z,59.87
2022-10-03T05:12:22.555Z,60.49
2022-10-03T05:15:11.821Z,60.49
2022-10-03T05:18:12.240Z,60.23
2022-10-03T05:20:45.356Z,59.77
2022-10-03T05:23:50.382Z,60.14
2022-10-03T05:26:45.746Z,60.18
2022-10-03T05:29:21.428Z,60.03
2022-10-03T05:32:09.635Z,59.82
2022-10-03T05:35:15.433Z,59.80
2022-10-03T05:37:49.797Z,60.28
2022-10-03T05:40:22.118Z,60.02
2022-10-03T05:42:55.578Z,59.92
2022-10-03T05:45:30.547Z,60.01
2022-10-03T05:48:11.031Z,60.10
2022-10-03T05:51:01.718Z,60.34
2022-10-03T05:54:04.755Z,59.81
2022-10-03T05:56:40.845Z,60.42
2022-10-03T05:59:23.270Z,60.15
2022-10-03T06:02:02.344Z,59.83
2022-10-03T06:05:09.243Z,60.33
2022-10-03T06:08:15.264Z,60.67
2022-10-03T06:11:05.406Z,60.64
2022-10-03T06:13:34.862Z,60.56
2022-10-03T06:16:40.067Z,60.29
2022-10-03T06:19:19.128Z,60.23
2022-10-03T06:22:22.374Z,60.09
2022-10-03T06:25:31.047Z,60.67
2022-10-03T06:28:22.020Z,60.13
2022-10-03T06:31:02.732Z,60.29
2022-10-03T06:33:59.299Z,59.82
2022-10-03T06:36:55.604Z,59.84
2022-10-03T06:39:41.093Z,60.44
2022-10-03T06:42:11.177Z,60.14
2022-10-03T06:44:59.734Z,59.97
2022-10-03T06:47:48.008Z,60.46
2022-10-03T06:50:27.548Z,59.74
2022-10-03T06:53:18.847Z,60.14
2022-10-03T06:56:13.240Z,59.89
2022-10-03T06:58:59.438Z,60.48
2022-10-03T07:01:52.191Z,60.06
2022-10-03T07:04:44.921Z,59.79
2022-10-03T07:07:14.827Z,60.18
2022-10-03T07:10:09.776Z,59.61
2022-10-03T07:13:00.982Z,60.33
2022-10-03T07:16:21.099Z,59.74
2022-10-03T07:19:20.578Z,60.18
2022-10-03T07:22:24.675Z,60.93
2022-10-03T07:25:03.641Z,59.85
2022-10-03T07:28:15.303Z,59.69
2022-10-03T07:30:56.019Z,60.07
2022-10-03T07:33:59.662Z,60.20
2022-10-03T07:36:51.438Z,60.53
2022-10-03T07:39:55.721Z,60.46
2022-10-03T07:42:48.147Z,60.54
2022-10-03T07:45:34.782Z,59.67
2022-10-03T07:48:19.797Z,60.35
2022-10-03T07:50:51.508Z,59.59
2022-10-03T07:53:21.543Z,60.19
2022-10-03T07:56:17.869Z,59.74
2022-10-03T07:58:54.699Z,60.14
2022-10-03T08:01:34.069Z,59.96
2022-10-03T08:04:19.586Z,59.90
2022-10-03T08:07:21.386Z,59.89
2022-10-03T08:10:37.313Z,60.36
2022-10-03T08:13:31.179Z,59.42
2022-10-03T08:16:02.793Z,60.13
2022-10-03T08:18:54.161Z,60.29
2022-10-03T08:21:22.521Z,60.46
2022-10-03T08:24:10.377Z,60.12
2022-10-03T08:26:55.520Z,59.94
2022-10-03T08:29:48.196Z,59.45
2022-10-03T08:32:34.352Z,60.44
2022-10-03T08:35:19.618Z,60.13
2022-10-03T08:37:52.273Z,60.11
2022-10-03T08:40:53.882Z,60.43
2022-10-03T08:43:39.371Z,59.73
2022-10-03T08:46:21.483Z,60.27
2022-10-03T08:48:54.594Z,59.97
2022-10-03T08:51:41.481Z,59.78
2022-10-03T08:54:19.689Z,60.30
2022-10-03T08:57:45.333Z,60.52
2022-10-03T09:00:22.496Z,60.71
2022-10-03T09:03:33.972Z,60.55
2022-10-03T09:06:13.042Z,60.38
2022-10-03T09:09:11.453Z,60.24
2022-10-03T09:12:09.345Z,60.71
2022-10-03T09:14:46.590Z,60.13
2022-10-03T09:17:56.729Z,60.62
2022-10-03T09:20:54.475Z,60.61
2022-10-03T09:23:51.971Z,60.18
2022-10-03T09:26:55.922Z,60.18
2022-10-03T09:29:55.222Z,59.83
2022-10-03T09:32:32.485Z,59.57
2022-10-03T09:35:31.466Z,60.63
2022-10-03T09:38:01.621Z,60.37
2022-10-03T09:40:51.277Z,60.59
2022-10-03T09:43:45.219Z,59.45
2022-10-03T09:47:08.951Z,60.39
2022-10-03T09:50:09.784Z,60.32
2022-10-03T09:53:10.346Z,59.76
2022-10-03T09:55:40.787Z,60.38
2022-10-03T09:58:41.413Z,60.06
2022-10-03T10:01:30.061Z,60.20
2022-10-03T10:04:32.344Z,59.85
2022-10-03T10:07:40.395Z,60.44
2022-10-03T10:10:34.165Z,60.08
2022-10-03T10:13:16.198Z,60.02
2022-10-03T10:16:13.792Z,59.66
2022-10-03T10:19:02.209Z,59.71
2022-10-03T10:21:36.533Z,60.24
2022-10-03T10:24:40.801Z,60.17
2022-10-03T10:27:20.803Z,60.02
2022-10-03T10:30:12.129Z,60.09
2022-10-03T10:33:00.031Z,60.00
2022-10-03T10:35:47.076Z,60.14
2022-10-03T10:38:35.697Z,60.22
2022-10-03T10:41:20.750Z,59.92
2022-10-03T10:44:09.290Z,59.48
2022-10-03T10:47:10.168Z,60.00
2022-10-03T10:49:49.165Z,59.92
2022-10-03T10:52:51.598Z,60.35
2022-10-03T10:56:09.260Z,60.43
2022-10-03T10:58:49.264Z,59.58
2022-10-03T11:01:42.761Z,60.30
2022-10-03T11:04:36.934Z,59.76
2022-10-03T11:07:21.984Z,59.83
2022-10-03T11:10:26.976Z,60.21
2022-10-03T11:12:53.841Z,59.48
2022-10-03T11:15:59.335Z,59.84
2022-10-03T11:18:44.843Z,59.48
2022-10-03T11:21:49.455Z,59.48
2022-10-03T11:24:29.805Z,59.32
2022-10-03T11:27:30.091Z,60.19
2022-10-03T11:30:19.672Z,59.48
2022-10-03T11:33:06.038Z,60.58
2022-10-03T11:35:44.995Z,59.36
2022-10-03T11:38:34.532Z,59.97
2022-10-03T11:41:16.118Z,59.74
2022-10-03T11:44:01.828Z,60.11
2022-10-03T11:46:50.536Z,59.48
2022-10-03T11:49:56.904Z,60.03
2022-10-03T11:52:54.205Z,59.89
2022-10-03T11:55:39.713Z,59.77
2022-10-03T11:58:32.398Z,60.27
2022-10-03T12:01:24.602Z,59.72
2022-10-03T12:04:03.824Z,59.91
2022-10-03T12:06:55.145Z,59.47
2022-10-03T12:09:43.921Z,60.12
2022-10-03T12:12:43.592Z,59.57
2022-10-03T12:15:31.673Z,59.50
2022-10-03T12:18:04.885Z,59.93
2022-10-03T12:20:35.063Z,60.24
2022-10-03T12:23:18.950Z,59.82
2022-10-03T12:25:45.898Z,59.32
2022-10-03T12:28:25.754Z,60.01
2022-10-03T12:31:17.066Z,59.34
2022-10-03T12:34:30.184Z,60.41
2022-10-03T12:37:11.024Z,59.68
2022-10-03T12:39:50.513Z,59.88
2022-10-03T12:42:26.999Z,59.96
2022-10-03T12:45:12.757Z,59.98
2022-10-03T12:47:56.403Z,60.01
2022-10-03T12:50:45.417Z,59.40
2022-10-03T12:53:18.191Z,59.36
2022-10-03T12:56:00.982Z,59.72
2022-10-03T12:58:42.811Z,59.81
2022-10-03T13:01:09.687Z,59.95
2022-10-03T13:03:50.917Z,59.48
2022-10-03T13:06:51.138Z,59.98
2022-10-03T13:09:16.654Z,60.18
2022-10-03T13:11:58.523Z,59.80
2022-10-03T13:14:43.747Z,59.54
2022-10-03T13:17:23.147Z,59.54
2022-10-03T13:20:00.206Z,59.83
2022-10-03T13:22:36.377Z,60.39
2022-10-03T13:25:12.432Z,59.97
2022-10-03T13:28:19.405Z,59.34
2022-10-03T13:31:24.755Z,60.42
2022-10-03T13:33:53.105Z,59.50
2022-10-03T13:36:30.403Z,60.06
2022-10-03T13:39:05.427Z,60.03
2022-10-03T13:41:38.263Z,60.29
2022-10-03T13:44:20.602Z,59.40
2022-10-03T13:46:53.694Z,59.54
2022-10-03T13:50:29.327Z,60.05
2022-10-03T13:53:08.777Z,59.24
2022-10-03T13:55:35.659Z,60.05
2022-10-03T13:58:20.530Z,59.35
2022-10-03T14:01:07.768Z,59.96
2022-10-03T14:04:11.863Z,60.07
2022-10-03T14:07:11.905Z,59.67
2022-10-03T14:10:01.653Z,59.50
2022-10-03T14:13:06.424Z,59.41
2022-10-03T14:15:45.119Z,59.68
2022-10-03T14:18:24.472Z,59.45
2022-10-03T14:21:13.074Z,59.44
2022-10-03T14:24:24.812Z,59.46
2022-10-03T14:27:16.672Z,59.71
2022-10-03T14:30:02.012Z,59.53
2022-10-03T14:32:47.166Z,59.67
2022-10-03T14:35:46.479Z,60.12
2022-10-03T14:38:54.527Z,59.13
2022-10-03T14:41:26.199Z,59.82
2022-10-03T14:43:58.221Z,59.96
2022-10-03T14:46:27.260Z,60.22
2022-10-03T14:49:03.574Z,60.46
2022-10-03T14:51:33.287Z,60.25
2022-10-03T14:54:03.450Z,59.37
2022-10-03T14:56:32.952Z,60.36
2022-10-03T14:59:02.242Z,60.65
2022-10-03T15:01:29.214Z,60.33
2022-10-03T15:04:12.191Z,60.77
2022-10-03T15:06:45.173Z,60.69
2022-10-03T15:09:18.347Z,60.58
2022-10-03T15:12:05.002Z,60.65
2022-10-03T15:14:35.024Z,61.08
2022-10-03T15:17:04.383Z,60.51
2022-10-03T15:19:44.426Z,60.55
2022-10-03T15:22:26.822Z,60.31
2022-10-03T15:24:54.451Z,60.33
2022-10-03T15:27:22.546Z,60.62
2022-10-03T15:29:57.920Z,60.69
2022-10-03T15:32:33.240Z,61.25
2022-10-03T15:35:01.405Z,61.40
2022-10-03T15:37:44.035Z,61.13
2022-10-03T15:40:39.377Z,61.07
2022-10-03T15:43:33.705Z,60.86
2022-10-03T15:46:03.199Z,60.63
2022-10-03T15:48:31.455Z,60.86
2022-10-03T15:50:59.090Z,61.61
2022-10-03T15:53:37.730Z,61.07
2022-10-03T15:56:24.307Z,61.08
2022-10-03T15:58:55.494Z,60.20
2022-10-03T16:01:23.762Z,60.29
2022-10-03T16:03:54.618Z,60.66
2022-10-03T16:06:49.597Z,60.67
2022-10-03T16:09:32.530Z,60.19
2022-10-03T16:12:10.840Z,60.79
2022-10-03T16:14:47.480Z,60.50
2022-10-03T16:17:35.549Z,60.29
2022-10-03T16:20:20.814Z,60.62
2022-10-03T16:22:52.912Z,60.06
2022-10-03T16:25:40.624Z,60.90
2022-10-03T16:28:08.849Z,60.63
2022-10-03T16:30:43.034Z,60.15
2022-10-03T16:33:09.873Z,60.02
2022-10-03T16:35:53.438Z,60.70
2022-10-03T16:38:44.227Z,60.49
2022-10-03T16:41:14.247Z,60.03
2022-10-03T16:43:41.408Z,60.48
2022-10-03T16:46:15.268Z,60.09
2022-10-03T16:49:01.091Z,59.39
2022-10-03T16:51:35.634Z,58.69
2022-10-03T16:54:03.901Z,58.72
2022-10-03T16:56:33.956Z,58.39
2022-10-03T16:59:25.912Z,58.77
2022-10-03T17:01:57.431Z,59.20
2022-10-03T17:04:33.844Z,59.40
2022-10-03T17:07:01.886Z,60.03
2022-10-03T17:09:41.835Z,59.66
2022-10-03T17:12:14.962Z,60.73
2022-10-03T17:14:45.088Z,60.31
2022-10-03T17:17:18.132Z,59.92
2022-10-03T17:19:46.476Z,60.34
2022-10-03T17:22:20.918Z,60.97
2022-10-03T17:25:07.228Z,60.89
2022-10-03T17:27:40.860Z,60.12
2022-10-03T17:30:27.778Z,60.21
2022-10-03T17:33:12.283Z,60.28
2022-10-03T17:35:44.975Z,60.33
2022-10-03T17:38:49.031Z,60.08
2022-10-03T17:41:24.698Z,60.05
2022-10-03T17:43:57.621Z,59.76
2022-10-03T17:46:50.870Z,59.66
2022-10-03T17:49:20.824Z,60.23
2022-10-03T17:51:50.254Z,59.95
2022-10-03T17:54:21.563Z,59.58
2022-10-03T17:56:58.154Z,59.87
2022-10-03T17:59:30.318Z,59.82
2022-10-03T18:01:59.987Z,59.93
2022-10-03T18:04:34.968Z,59.93
2022-10-03T18:07:18.709Z,59.41
2022-10-03T18:09:49.799Z,59.85
2022-10-03T18:12:40.091Z,59.40
2022-10-03T18:15:06.956Z,60.04
2022-10-03T18:18:02.117Z,59.15
2022-10-03T18:20:42.535Z,59.21
2022-10-03T18:23:12.376Z,59.45
2022-10-03T18:29:11.764Z,59.11
2022-10-03T18:31:45.536Z,58.94
2022-10-03T18:34:48.054Z,58.83
2022-10-03T18:37:27.141Z,59.64
2022-10-03T18:39:57.412Z,59.69
2022-10-03T18:42:28.474Z,58.79
2022-10-03T18:44:59.991Z,58.99
2022-10-03T18:47:34.354Z,59.34
2022-10-03T18:50:30.183Z,59.22
2022-10-03T18:53:35.569Z,59.23
2022-10-03T18:56:06.477Z,59.50
2022-10-03T18:58:37.201Z,58.90
2022-10-03T19:01:19.518Z,59.30
2022-10-03T19:03:59.300Z,59.54
2022-10-03T19:06:32.328Z,59.38
2022-10-03T19:09:54.893Z,59.25
2022-10-03T19:12:22.167Z,59.13
2022-10-03T19:15:16.885Z,59.47
2022-10-03T19:18:07.973Z,59.32
2022-10-03T19:20:38.514Z,59.33
2022-10-03T19:23:07.976Z,59.06
2022-10-03T19:25:37.610Z,58.87
2022-10-03T19:28:18.477Z,59.02
2022-10-03T19:30:46.405Z,59.43
2022-10-03T19:33:17.454Z,59.54
2022-10-03T19:35:47.744Z,59.22
2022-10-03T19:38:28.945Z,59.51
2022-10-03T19:41:23.515Z,59.55
2022-10-03T19:43:50.575Z,59.57
2022-10-03T19:46:26.439Z,58.72
2022-10-03T19:49:02.278Z,59.47
2022-10-03T19:51:29.224Z,59.70
2022-10-03T19:54:00.085Z,59.06
2022-10-03T19:56:30.695Z,59.16
2022-10-03T19:59:14.225Z,58.88
2022-10-03T20:09:28.584Z,59.76
2022-10-03T20:12:09.103Z,59.20
2022-10-03T20:14:37.214Z,59.13
2022-10-03T20:17:15.614Z,59.06
2022-10-03T20:19:54.559Z,58.74
2022-10-03T20:22:22.877Z,58.89
2022-10-03T20:24:49.910Z,58.93
2022-10-03T20:27:42.825Z,58.69
2022-10-03T20:30:37.655Z,58.97
2022-10-03T20:33:04.578Z,59.31
2022-10-03T20:35:42.487Z,59.30
2022-10-03T20:38:41.393Z,58.98
2022-10-03T20:41:17.381Z,58.96
2022-10-03T20:44:03.981Z,58.69
2022-10-03T20:46:54.464Z,59.29
2022-10-03T20:49:31.808Z,59.00
2022-10-03T20:52:04.063Z,59.61
2022-10-03T20:54:37.348Z,58.65
2022-10-03T20:57:05.674Z,59.36
2022-10-03T20:59:39.567Z,58.91
2022-10-03T21:02:27.117Z,58.65
2022-10-03T21:04:57.619Z,58.66
2022-10-03T21:07:43.602Z,59.08
2022-10-03T21:10:29.898Z,58.99
2022-10-03T21:13:09.487Z,58.60
2022-10-03T21:15:53.877Z,59.52
2022-10-03T21:18:28.745Z,59.36
2022-10-03T21:21:08.569Z,58.68
2022-10-03T21:23:39.207Z,59.49
2022-10-03T21:26:06.985Z,59.04
2022-10-03T21:28:35.872Z,58.43
2022-10-03T21:31:09.883Z,59.32
2022-10-03T21:33:58.461Z,59.11
2022-10-03T21:36:45.029Z,58.55
2022-10-03T21:39:17.679Z,58.99
2022-10-03T21:42:01.024Z,59.00
2022-10-03T21:44:39.685Z,58.42
2022-10-03T21:47:28.463Z,58.59
2022-10-03T21:49:58.000Z,58.97
2022-10-03T21:52:36.563Z,59.21
2022-10-03T21:55:07.019Z,58.78
2022-10-03T21:57:52.524Z,58.42
2022-10-03T22:00:20.346Z,58.60
2022-10-03T22:02:53.531Z,58.66
2022-10-03T22:05:44.744Z,58.68
2022-10-03T22:08:20.508Z,58.55
2022-10-03T22:11:11.794Z,58.86
2022-10-03T22:13:40.405Z,58.79
2022-10-03T22:16:18.599Z,58.74
2022-10-03T22:19:08.039Z,59.03
2022-10-03T22:21:52.244Z,58.42
2022-10-03T22:24:28.690Z,59.30
2022-10-03T22:27:07.758Z,58.45
2022-10-03T22:29:39.880Z,58.78
2022-10-03T22:32:34.963Z,58.39
2022-10-03T22:35:13.781Z,59.39
2022-10-03T22:37:41.170Z,58.61
2022-10-03T22:40:09.012Z,58.24
2022-10-03T22:42:40.780Z,58.33
2022-10-03T22:45:08.043Z,58.58
2022-10-03T22:47:35.045Z,59.21
2022-10-03T22:50:04.234Z,59.05
2022-10-03T22:52:34.095Z,58.55
2022-10-03T22:55:01.020Z,58.85
2022-10-03T22:57:27.978Z,59.45
2022-10-03T23:00:08.153Z,58.88
2022-10-03T23:02:37.688Z,59.12
2022-10-03T23:05:06.791Z,58.88
2022-10-03T23:07:39.425Z,59.13
2022-10-03T23:10:21.667Z,58.48
2022-10-03T23:12:53.733Z,58.77
2022-10-03T23:15:20.697Z,59.21
2022-10-03T23:17:59.845Z,59.16
2022-10-03T23:20:49.207Z,58.88
2022-10-03T23:23:22.890Z,58.49
2022-10-03T23:26:04.583Z,59.07
2022-10-03T23:28:44.297Z,58.60
2022-10-03T23:31:34.865Z,59.37
2022-10-03T23:34:02.062Z,58.84
2022-10-03T23:36:28.949Z,58.39
2022-10-03T23:38:59.892Z,58.06
2022-10-03T23:41:50.967Z,58.32
2022-10-03T23:44:37.504Z,59.00
2022-10-03T23:47:05.355Z,58.59
2022-10-03T23:49:33.422Z,58.75
2022-10-03T23:52:00.446Z,58.53
2022-10-03T23:54:27.396Z,58.21
2022-10-03T23:57:00.271Z,59.14
2022-10-03T23:59:27.794Z,59.20
